Independence of the Seas — C6WW4 — position and weather

sailwx.info

Track history (hours):
 
Tides and Currents Weather Stations Pressure Air Temp Water Temp Dewpoint Dewpoint Depression Visibility Wind Speed Wind Dir Waves Ship Positions

Independence of the Seas

Last reported at 2015-May-03 21:33 UTC. Time now 2015-May-05 15:17 UTC.
Position N 25°59' W 080°01'.

Length 339 m; draft 8.8 m.

Type: Passenger vessel. MMSI: 309374000.

Date/timePositionNaut miles runAvg speedWind from/ knotsBaromVisibWave heightAir tempDewpointWater temp
2015-May-03 21:33N 25°59' W 080°01'8 8.0
2015-May-03 20:33N 26°05' W 080°07'0 0.0
2015-May-03 19:22N 26°05' W 080°07'0 0.0
2015-May-03 18:22N 26°05' W 080°07'0 0.0
2015-May-03 17:25N 26°05' W 080°07'0 0.0
2015-May-03 16:25N 26°05' W 080°07'0 0.0
2015-May-03 15:28N 26°05' W 080°07'0 0.0
2015-May-03 14:28N 26°05' W 080°07'0 0.0
2015-May-03 13:28N 26°05' W 080°07'0 0.0
2015-May-03 12:31N 26°05' W 080°07'0 0.0
2015-May-03 11:31N 26°05' W 080°07'0 0.0
2015-May-03 10:31N 26°05' W 080°07'0 0.2
2015-May-03 09:33N 26°05' W 080°07'9 9.0
2015-May-03 08:34N 25°59' W 080°00'  
2015-Apr-28 23:19N 17°51' W 063°04'9 9.5
2015-Apr-28 22:22N 17°60' W 063°05'1 0.0
2015-Apr-28 11:25N 18°00' W 063°05'1315.1
2015-Apr-28 10:32N 18°07' W 063°17'1616.2
2015-Apr-28 09:33N 18°16' W 063°31'  
2015-Apr-25 23:33N 26°07' W 079°41'1717.5
2015-Apr-25 22:33N 26°06' W 080°00'6 6.2
2015-Apr-25 21:33N 26°05' W 080°07'0 0.0
2015-Apr-25 20:33N 26°05' W 080°07'0 0.0
2015-Apr-25 19:33N 26°05' W 080°07'0 0.0
2015-Apr-25 18:33N 26°05' W 080°07'0 0.0
2015-Apr-25 17:33N 26°05' W 080°07'0 0.0
2015-Apr-25 16:33N 26°05' W 080°07'0 0.0
2015-Apr-25 15:33N 26°05' W 080°07'0 0.0
2015-Apr-25 14:33N 26°05' W 080°07'0 0.0
2015-Apr-25 13:21N 26°05' W 080°07'0 0.0
2015-Apr-25 12:27N 26°05' W 080°07'0 0.0
2015-Apr-25 11:27N 26°05' W 080°07'0 0.0
2015-Apr-25 10:27N 26°05' W 080°07'0 0.0
2015-Apr-25 09:33N 26°05' W 080°07'4 4.0
2015-Apr-25 08:33N 26°05' W 080°02'1615.6
2015-Apr-25 07:33N 25°50' W 079°57'  
Track history (hours):
 
Tides and Currents Weather Stations Pressure Air Temp Water Temp Dewpoint Dewpoint Depression Visibility Wind Speed Wind Dir Waves Ship Positions

Independence of the Seas

Last reported at 2015-May-03 21:33 UTC. Time now 2015-May-05 15:17 UTC.
Position N 25°59' W 080°01'.

Length 339 m; draft 8.8 m.

Type: Passenger vessel. MMSI: 309374000.

Date/timePositionNaut miles runAvg speedWind from/ knotsBaromVisibWave heightAir tempDewpointWater temp
2015-May-03 21:33N 25°59' W 080°01'8 8.0
2015-May-03 20:33N 26°05' W 080°07'0 0.0
2015-May-03 19:22N 26°05' W 080°07'0 0.0
2015-May-03 18:22N 26°05' W 080°07'0 0.0
2015-May-03 17:25N 26°05' W 080°07'0 0.0
2015-May-03 16:25N 26°05' W 080°07'0 0.0
2015-May-03 15:28N 26°05' W 080°07'0 0.0
2015-May-03 14:28N 26°05' W 080°07'0 0.0
2015-May-03 13:28N 26°05' W 080°07'0 0.0
2015-May-03 12:31N 26°05' W 080°07'0 0.0
2015-May-03 11:31N 26°05' W 080°07'0 0.0
2015-May-03 10:31N 26°05' W 080°07'0 0.2
2015-May-03 09:33N 26°05' W 080°07'9 9.0
2015-May-03 08:34N 25°59' W 080°00'  
2015-Apr-28 23:19N 17°51' W 063°04'9 9.5
2015-Apr-28 22:22N 17°60' W 063°05'1 0.0
2015-Apr-28 11:25N 18°00' W 063°05'1315.1
2015-Apr-28 10:32N 18°07' W 063°17'1616.2
2015-Apr-28 09:33N 18°16' W 063°31'  
2015-Apr-25 23:33N 26°07' W 079°41'1717.5
2015-Apr-25 22:33N 26°06' W 080°00'6 6.2
2015-Apr-25 21:33N 26°05' W 080°07'0 0.0
2015-Apr-25 20:33N 26°05' W 080°07'0 0.0
2015-Apr-25 19:33N 26°05' W 080°07'0 0.0
2015-Apr-25 18:33N 26°05' W 080°07'0 0.0
2015-Apr-25 17:33N 26°05' W 080°07'0 0.0
2015-Apr-25 16:33N 26°05' W 080°07'0 0.0
2015-Apr-25 15:33N 26°05' W 080°07'0 0.0
2015-Apr-25 14:33N 26°05' W 080°07'0 0.0
2015-Apr-25 13:21N 26°05' W 080°07'0 0.0
2015-Apr-25 12:27N 26°05' W 080°07'0 0.0
2015-Apr-25 11:27N 26°05' W 080°07'0 0.0
2015-Apr-25 10:27N 26°05' W 080°07'0 0.0
2015-Apr-25 09:33N 26°05' W 080°07'4 4.0
2015-Apr-25 08:33N 26°05' W 080°02'1615.6
2015-Apr-25 07:33N 25°50' W 079°57'  

Dump ship's entire track history